sensor_id;sensor_type;location;lat;lon;timestamp;P1;durP1;ratioP1;P2;durP2;ratioP2
24157;SDS011;12316;50.904;4.200;2023-08-20T00:01:56;14.73;;;3.28;;
24157;SDS011;12316;50.904;4.200;2023-08-20T00:04:24;14.63;;;3.97;;
24157;SDS011;12316;50.904;4.200;2023-08-20T00:06:51;10.73;;;3.50;;
24157;SDS011;12316;50.904;4.200;2023-08-20T00:09:17;12.32;;;3.47;;
24157;SDS011;12316;50.904;4.200;2023-08-20T00:11:43;16.90;;;3.42;;
24157;SDS011;12316;50.904;4.200;2023-08-20T00:14:15;12.18;;;2.80;;
24157;SDS011;12316;50.904;4.200;2023-08-20T00:16:42;14.38;;;3.22;;
24157;SDS011;12316;50.904;4.200;2023-08-20T00:19:08;12.80;;;3.47;;
24157;SDS011;12316;50.904;4.200;2023-08-20T00:21:38;10.52;;;2.85;;
24157;SDS011;12316;50.904;4.200;2023-08-20T00:24:09;13.27;;;3.13;;
24157;SDS011;12316;50.904;4.200;2023-08-20T00:26:37;9.10;;;2.90;;
24157;SDS011;12316;50.904;4.200;2023-08-20T00:29:02;8.40;;;2.92;;
24157;SDS011;12316;50.904;4.200;2023-08-20T00:31:28;11.25;;;3.35;;
24157;SDS011;12316;50.904;4.200;2023-08-20T00:33:54;11.52;;;3.00;;
24157;SDS011;12316;50.904;4.200;2023-08-20T00:36:20;8.20;;;2.45;;
24157;SDS011;12316;50.904;4.200;2023-08-20T00:38:45;11.73;;;3.00;;
24157;SDS011;12316;50.904;4.200;2023-08-20T00:41:11;13.93;;;3.10;;
24157;SDS011;12316;50.904;4.200;2023-08-20T00:43:36;9.88;;;3.03;;
24157;SDS011;12316;50.904;4.200;2023-08-20T00:46:02;12.15;;;2.80;;
24157;SDS011;12316;50.904;4.200;2023-08-20T00:48:28;9.65;;;3.50;;
24157;SDS011;12316;50.904;4.200;2023-08-20T00:50:54;8.90;;;2.75;;
24157;SDS011;12316;50.904;4.200;2023-08-20T00:53:20;11.35;;;3.15;;
24157;SDS011;12316;50.904;4.200;2023-08-20T00:55:46;11.73;;;3.17;;
24157;SDS011;12316;50.904;4.200;2023-08-20T00:58:11;11.98;;;3.28;;
24157;SDS011;12316;50.904;4.200;2023-08-20T01:00:37;12.20;;;3.03;;
24157;SDS011;12316;50.904;4.200;2023-08-20T01:03:03;11.50;;;3.53;;
24157;SDS011;12316;50.904;4.200;2023-08-20T01:05:30;11.02;;;3.17;;
24157;SDS011;12316;50.904;4.200;2023-08-20T01:10:47;9.77;;;2.90;;
24157;SDS011;12316;50.904;4.200;2023-08-20T01:13:22;10.63;;;3.10;;
24157;SDS011;12316;50.904;4.200;2023-08-20T01:15:48;11.45;;;3.40;;
24157;SDS011;12316;50.904;4.200;2023-08-20T01:18:14;12.43;;;3.08;;
24157;SDS011;12316;50.904;4.200;2023-08-20T01:20:41;8.35;;;2.75;;
24157;SDS011;12316;50.904;4.200;2023-08-20T01:26:01;12.80;;;3.15;;
24157;SDS011;12316;50.904;4.200;2023-08-20T01:28:43;10.10;;;2.70;;
24157;SDS011;12316;50.904;4.200;2023-08-20T01:31:10;6.32;;;2.67;;
24157;SDS011;12316;50.904;4.200;2023-08-20T01:33:36;12.13;;;3.40;;
24157;SDS011;12316;50.904;4.200;2023-08-20T01:36:02;12.10;;;3.47;;
24157;SDS011;12316;50.904;4.200;2023-08-20T01:38:34;13.80;;;3.28;;
24157;SDS011;12316;50.904;4.200;2023-08-20T01:41:00;9.45;;;3.20;;
24157;SDS011;12316;50.904;4.200;2023-08-20T01:43:26;11.27;;;3.30;;
24157;SDS011;12316;50.904;4.200;2023-08-20T01:45:52;10.70;;;3.33;;
24157;SDS011;12316;50.904;4.200;2023-08-20T01:48:18;11.00;;;3.30;;
24157;SDS011;12316;50.904;4.200;2023-08-20T01:50:43;15.35;;;3.10;;
24157;SDS011;12316;50.904;4.200;2023-08-20T01:53:11;8.93;;;3.00;;
24157;SDS011;12316;50.904;4.200;2023-08-20T01:55:37;11.40;;;2.90;;
24157;SDS011;12316;50.904;4.200;2023-08-20T01:58:02;10.23;;;2.70;;
24157;SDS011;12316;50.904;4.200;2023-08-20T02:00:28;11.88;;;2.95;;
24157;SDS011;12316;50.904;4.200;2023-08-20T02:02:55;10.45;;;3.05;;
24157;SDS011;12316;50.904;4.200;2023-08-20T02:05:21;12.05;;;3.40;;
24157;SDS011;12316;50.904;4.200;2023-08-20T02:07:48;12.30;;;3.72;;
24157;SDS011;12316;50.904;4.200;2023-08-20T02:10:13;11.43;;;3.03;;
24157;SDS011;12316;50.904;4.200;2023-08-20T02:12:40;9.57;;;3.08;;
24157;SDS011;12316;50.904;4.200;2023-08-20T02:15:06;8.07;;;2.83;;
24157;SDS011;12316;50.904;4.200;2023-08-20T02:17:33;11.50;;;3.05;;
24157;SDS011;12316;50.904;4.200;2023-08-20T02:20:00;12.18;;;3.03;;
24157;SDS011;12316;50.904;4.200;2023-08-20T02:22:28;13.10;;;2.95;;
24157;SDS011;12316;50.904;4.200;2023-08-20T02:24:54;13.02;;;2.90;;
24157;SDS011;12316;50.904;4.200;2023-08-20T02:27:20;9.50;;;2.85;;
24157;SDS011;12316;50.904;4.200;2023-08-20T02:29:47;10.73;;;2.65;;
24157;SDS011;12316;50.904;4.200;2023-08-20T02:32:12;9.70;;;2.85;;
24157;SDS011;12316;50.904;4.200;2023-08-20T02:34:38;12.90;;;2.97;;
24157;SDS011;12316;50.904;4.200;2023-08-20T02:37:05;6.60;;;2.53;;
24157;SDS011;12316;50.904;4.200;2023-08-20T02:39:30;7.35;;;2.53;;
24157;SDS011;12316;50.904;4.200;2023-08-20T02:41:56;10.73;;;2.90;;
24157;SDS011;12316;50.904;4.200;2023-08-20T02:44:22;12.07;;;2.83;;
24157;SDS011;12316;50.904;4.200;2023-08-20T02:46:48;8.80;;;2.97;;
24157;SDS011;12316;50.904;4.200;2023-08-20T02:49:14;10.32;;;2.45;;
24157;SDS011;12316;50.904;4.200;2023-08-20T02:51:39;10.85;;;2.63;;
24157;SDS011;12316;50.904;4.200;2023-08-20T02:54:08;11.90;;;2.90;;
24157;SDS011;12316;50.904;4.200;2023-08-20T02:56:34;9.90;;;2.97;;
24157;SDS011;12316;50.904;4.200;2023-08-20T02:58:59;7.10;;;2.78;;
24157;SDS011;12316;50.904;4.200;2023-08-20T03:01:25;9.43;;;2.83;;
24157;SDS011;12316;50.904;4.200;2023-08-20T03:03:51;7.13;;;2.88;;
24157;SDS011;12316;50.904;4.200;2023-08-20T03:06:17;8.18;;;2.85;;
24157;SDS011;12316;50.904;4.200;2023-08-20T03:08:43;8.88;;;2.72;;
24157;SDS011;12316;50.904;4.200;2023-08-20T03:11:08;6.07;;;2.30;;
24157;SDS011;12316;50.904;4.200;2023-08-20T03:13:35;11.85;;;2.80;;
24157;SDS011;12316;50.904;4.200;2023-08-20T03:16:01;6.22;;;2.78;;
24157;SDS011;12316;50.904;4.200;2023-08-20T03:18:27;10.20;;;2.80;;
24157;SDS011;12316;50.904;4.200;2023-08-20T03:20:54;5.15;;;2.22;;
24157;SDS011;12316;50.904;4.200;2023-08-20T03:23:21;8.90;;;2.53;;
24157;SDS011;12316;50.904;4.200;2023-08-20T03:25:47;11.52;;;3.15;;
24157;SDS011;12316;50.904;4.200;2023-08-20T03:28:12;8.98;;;2.97;;
24157;SDS011;12316;50.904;4.200;2023-08-20T03:30:39;10.02;;;3.08;;
24157;SDS011;12316;50.904;4.200;2023-08-20T03:33:04;9.98;;;2.72;;
24157;SDS011;12316;50.904;4.200;2023-08-20T03:35:30;13.30;;;3.17;;
24157;SDS011;12316;50.904;4.200;2023-08-20T03:37:55;10.15;;;3.05;;
24157;SDS011;12316;50.904;4.200;2023-08-20T03:40:21;12.95;;;3.60;;
24157;SDS011;12316;50.904;4.200;2023-08-20T03:42:47;12.30;;;3.15;;
24157;SDS011;12316;50.904;4.200;2023-08-20T03:45:12;9.60;;;2.90;;
24157;SDS011;12316;50.904;4.200;2023-08-20T03:47:38;12.82;;;3.13;;
24157;SDS011;12316;50.904;4.200;2023-08-20T03:50:04;9.73;;;3.20;;
24157;SDS011;12316;50.904;4.200;2023-08-20T03:52:30;7.07;;;2.83;;
24157;SDS011;12316;50.904;4.200;2023-08-20T03:54:56;11.98;;;3.28;;
24157;SDS011;12316;50.904;4.200;2023-08-20T03:57:22;8.02;;;2.95;;
24157;SDS011;12316;50.904;4.200;2023-08-20T03:59:47;11.18;;;3.08;;
24157;SDS011;12316;50.904;4.200;2023-08-20T04:02:13;10.98;;;3.60;;
24157;SDS011;12316;50.904;4.200;2023-08-20T04:04:39;12.18;;;3.30;;
24157;SDS011;12316;50.904;4.200;2023-08-20T04:07:05;8.13;;;3.25;;
24157;SDS011;12316;50.904;4.200;2023-08-20T04:09:32;11.10;;;3.42;;
24157;SDS011;12316;50.904;4.200;2023-08-20T04:11:58;14.55;;;4.25;;
24157;SDS011;12316;50.904;4.200;2023-08-20T04:14:24;12.98;;;3.60;;
24157;SDS011;12316;50.904;4.200;2023-08-20T04:16:51;9.50;;;3.70;;
24157;SDS011;12316;50.904;4.200;2023-08-20T04:19:17;12.10;;;3.58;;
24157;SDS011;12316;50.904;4.200;2023-08-20T04:21:42;12.02;;;3.65;;
24157;SDS011;12316;50.904;4.200;2023-08-20T04:24:08;13.52;;;3.88;;
24157;SDS011;12316;50.904;4.200;2023-08-20T04:26:34;12.93;;;4.20;;
24157;SDS011;12316;50.904;4.200;2023-08-20T04:28:59;14.75;;;3.97;;
24157;SDS011;12316;50.904;4.200;2023-08-20T04:31:26;14.27;;;4.03;;
24157;SDS011;12316;50.904;4.200;2023-08-20T04:33:52;13.50;;;4.40;;
24157;SDS011;12316;50.904;4.200;2023-08-20T04:36:17;12.40;;;4.40;;
24157;SDS011;12316;50.904;4.200;2023-08-20T04:38:43;17.55;;;4.53;;
24157;SDS011;12316;50.904;4.200;2023-08-20T04:41:08;10.70;;;3.38;;
24157;SDS011;12316;50.904;4.200;2023-08-20T04:43:34;10.77;;;3.58;;
24157;SDS011;12316;50.904;4.200;2023-08-20T04:45:59;12.05;;;4.13;;
24157;SDS011;12316;50.904;4.200;2023-08-20T04:48:25;10.85;;;3.80;;
24157;SDS011;12316;50.904;4.200;2023-08-20T04:50:51;10.93;;;3.60;;
24157;SDS011;12316;50.904;4.200;2023-08-20T04:53:16;8.18;;;3.33;;
24157;SDS011;12316;50.904;4.200;2023-08-20T04:55:42;10.82;;;3.35;;
24157;SDS011;12316;50.904;4.200;2023-08-20T04:58:08;12.88;;;3.65;;
24157;SDS011;12316;50.904;4.200;2023-08-20T05:00:34;19.08;;;4.43;;
24157;SDS011;12316;50.904;4.200;2023-08-20T05:03:00;12.77;;;4.07;;
24157;SDS011;12316;50.904;4.200;2023-08-20T05:05:27;9.88;;;3.50;;
24157;SDS011;12316;50.904;4.200;2023-08-20T05:07:53;12.80;;;3.70;;
24157;SDS011;12316;50.904;4.200;2023-08-20T05:10:18;9.65;;;3.30;;
24157;SDS011;12316;50.904;4.200;2023-08-20T05:12:45;11.73;;;3.90;;
24157;SDS011;12316;50.904;4.200;2023-08-20T05:15:10;11.57;;;3.35;;
24157;SDS011;12316;50.904;4.200;2023-08-20T05:17:36;12.15;;;3.15;;
24157;SDS011;12316;50.904;4.200;2023-08-20T05:20:02;10.15;;;3.13;;
24157;SDS011;12316;50.904;4.200;2023-08-20T05:22:28;9.35;;;3.10;;
24157;SDS011;12316;50.904;4.200;2023-08-20T05:24:54;11.57;;;3.60;;
24157;SDS011;12316;50.904;4.200;2023-08-20T05:27:19;10.95;;;3.40;;
24157;SDS011;12316;50.904;4.200;2023-08-20T05:29:45;12.52;;;3.30;;
24157;SDS011;12316;50.904;4.200;2023-08-20T05:32:11;9.18;;;2.88;;
24157;SDS011;12316;50.904;4.200;2023-08-20T05:34:37;9.68;;;2.97;;
24157;SDS011;12316;50.904;4.200;2023-08-20T05:37:02;9.80;;;2.83;;
24157;SDS011;12316;50.904;4.200;2023-08-20T05:39:29;6.45;;;2.50;;
24157;SDS011;12316;50.904;4.200;2023-08-20T05:41:55;6.40;;;2.42;;
24157;SDS011;12316;50.904;4.200;2023-08-20T05:44:21;5.97;;;1.92;;
24157;SDS011;12316;50.904;4.200;2023-08-20T05:46:47;7.78;;;2.38;;
24157;SDS011;12316;50.904;4.200;2023-08-20T05:49:14;7.45;;;2.00;;
24157;SDS011;12316;50.904;4.200;2023-08-20T05:51:41;5.78;;;2.20;;
24157;SDS011;12316;50.904;4.200;2023-08-20T05:54:07;9.65;;;2.03;;
24157;SDS011;12316;50.904;4.200;2023-08-20T05:56:33;8.15;;;2.47;;
24157;SDS011;12316;50.904;4.200;2023-08-20T05:58:58;9.52;;;2.40;;
24157;SDS011;12316;50.904;4.200;2023-08-20T06:01:24;9.00;;;2.60;;
24157;SDS011;12316;50.904;4.200;2023-08-20T06:03:50;10.60;;;2.60;;
24157;SDS011;12316;50.904;4.200;2023-08-20T06:06:15;9.80;;;2.83;;
24157;SDS011;12316;50.904;4.200;2023-08-20T06:08:41;10.45;;;3.25;;
24157;SDS011;12316;50.904;4.200;2023-08-20T06:11:07;8.68;;;2.80;;
24157;SDS011;12316;50.904;4.200;2023-08-20T06:13:32;7.88;;;2.58;;
24157;SDS011;12316;50.904;4.200;2023-08-20T06:15:58;8.90;;;2.47;;
24157;SDS011;12316;50.904;4.200;2023-08-20T06:18:23;11.07;;;3.10;;
24157;SDS011;12316;50.904;4.200;2023-08-20T06:20:49;12.10;;;3.20;;
24157;SDS011;12316;50.904;4.200;2023-08-20T06:23:15;9.02;;;2.63;;
24157;SDS011;12316;50.904;4.200;2023-08-20T06:25:41;11.80;;;3.10;;
24157;SDS011;12316;50.904;4.200;2023-08-20T06:28:08;9.38;;;2.75;;
24157;SDS011;12316;50.904;4.200;2023-08-20T06:30:34;11.35;;;3.05;;
24157;SDS011;12316;50.904;4.200;2023-08-20T06:33:00;10.98;;;2.85;;
24157;SDS011;12316;50.904;4.200;2023-08-20T06:35:26;11.63;;;3.22;;
24157;SDS011;12316;50.904;4.200;2023-08-20T06:37:51;10.10;;;3.10;;
24157;SDS011;12316;50.904;4.200;2023-08-20T06:40:17;11.80;;;3.10;;
24157;SDS011;12316;50.904;4.200;2023-08-20T06:42:43;9.50;;;2.55;;
24157;SDS011;12316;50.904;4.200;2023-08-20T06:45:08;11.98;;;2.90;;
24157;SDS011;12316;50.904;4.200;2023-08-20T06:47:34;11.80;;;3.22;;
24157;SDS011;12316;50.904;4.200;2023-08-20T06:50:00;11.85;;;2.58;;
24157;SDS011;12316;50.904;4.200;2023-08-20T06:52:26;9.63;;;2.55;;
24157;SDS011;12316;50.904;4.200;2023-08-20T06:54:51;10.38;;;2.60;;
24157;SDS011;12316;50.904;4.200;2023-08-20T06:57:17;12.57;;;3.35;;
24157;SDS011;12316;50.904;4.200;2023-08-20T06:59:43;10.70;;;2.78;;
24157;SDS011;12316;50.904;4.200;2023-08-20T07:02:09;7.32;;;1.75;;
24157;SDS011;12316;50.904;4.200;2023-08-20T07:04:35;8.93;;;2.10;;
24157;SDS011;12316;50.904;4.200;2023-08-20T07:07:00;8.00;;;1.70;;
24157;SDS011;12316;50.904;4.200;2023-08-20T07:09:26;9.68;;;1.77;;
24157;SDS011;12316;50.904;4.200;2023-08-20T07:11:52;8.52;;;2.25;;
24157;SDS011;12316;50.904;4.200;2023-08-20T07:14:18;6.65;;;1.73;;
24157;SDS011;12316;50.904;4.200;2023-08-20T07:16:43;9.52;;;2.00;;
24157;SDS011;12316;50.904;4.200;2023-08-20T07:19:09;8.85;;;1.80;;
24157;SDS011;12316;50.904;4.200;2023-08-20T07:21:34;7.60;;;2.10;;
24157;SDS011;12316;50.904;4.200;2023-08-20T07:24:00;7.85;;;2.03;;
24157;SDS011;12316;50.904;4.200;2023-08-20T07:26:26;6.40;;;2.05;;
24157;SDS011;12316;50.904;4.200;2023-08-20T07:28:51;8.15;;;2.30;;
24157;SDS011;12316;50.904;4.200;2023-08-20T07:31:26;7.75;;;2.17;;
24157;SDS011;12316;50.904;4.200;2023-08-20T07:33:53;8.73;;;2.15;;
24157;SDS011;12316;50.904;4.200;2023-08-20T07:36:20;9.20;;;2.20;;
24157;SDS011;12316;50.904;4.200;2023-08-20T07:38:49;9.32;;;1.98;;
24157;SDS011;12316;50.904;4.200;2023-08-20T07:41:16;5.82;;;1.60;;
24157;SDS011;12316;50.904;4.200;2023-08-20T07:43:42;8.70;;;1.70;;
24157;SDS011;12316;50.904;4.200;2023-08-20T07:46:08;4.40;;;1.52;;
24157;SDS011;12316;50.904;4.200;2023-08-20T07:48:34;6.10;;;1.75;;
24157;SDS011;12316;50.904;4.200;2023-08-20T07:51:04;7.05;;;1.88;;
24157;SDS011;12316;50.904;4.200;2023-08-20T07:53:30;8.70;;;1.95;;
24157;SDS011;12316;50.904;4.200;2023-08-20T07:55:57;10.10;;;1.90;;
24157;SDS011;12316;50.904;4.200;2023-08-20T07:58:24;8.45;;;1.92;;
24157;SDS011;12316;50.904;4.200;2023-08-20T08:00:49;8.55;;;2.15;;
24157;SDS011;12316;50.904;4.200;2023-08-20T08:03:15;7.60;;;1.70;;
24157;SDS011;12316;50.904;4.200;2023-08-20T08:05:42;7.05;;;1.80;;
24157;SDS011;12316;50.904;4.200;2023-08-20T08:08:17;10.38;;;2.17;;
24157;SDS011;12316;50.904;4.200;2023-08-20T08:10:43;8.02;;;1.85;;
24157;SDS011;12316;50.904;4.200;2023-08-20T08:13:14;6.13;;;1.65;;
24157;SDS011;12316;50.904;4.200;2023-08-20T08:15:41;6.20;;;1.55;;
24157;SDS011;12316;50.904;4.200;2023-08-20T08:18:07;7.22;;;1.60;;
24157;SDS011;12316;50.904;4.200;2023-08-20T08:20:33;6.72;;;1.58;;
24157;SDS011;12316;50.904;4.200;2023-08-20T08:22:59;5.53;;;1.67;;
24157;SDS011;12316;50.904;4.200;2023-08-20T08:25:25;4.13;;;1.35;;
24157;SDS011;12316;50.904;4.200;2023-08-20T08:27:51;4.75;;;1.25;;
24157;SDS011;12316;50.904;4.200;2023-08-20T08:30:17;7.63;;;2.15;;
24157;SDS011;12316;50.904;4.200;2023-08-20T08:32:43;6.18;;;2.00;;
24157;SDS011;12316;50.904;4.200;2023-08-20T08:35:08;5.75;;;1.48;;
24157;SDS011;12316;50.904;4.200;2023-08-20T08:37:34;4.93;;;1.45;;
24157;SDS011;12316;50.904;4.200;2023-08-20T08:40:00;5.57;;;1.40;;
24157;SDS011;12316;50.904;4.200;2023-08-20T08:42:30;5.65;;;1.50;;
24157;SDS011;12316;50.904;4.200;2023-08-20T08:44:57;5.47;;;1.30;;
24157;SDS011;12316;50.904;4.200;2023-08-20T08:47:25;7.72;;;1.45;;
24157;SDS011;12316;50.904;4.200;2023-08-20T08:49:52;6.40;;;1.20;;
24157;SDS011;12316;50.904;4.200;2023-08-20T08:52:21;6.35;;;1.42;;
24157;SDS011;12316;50.904;4.200;2023-08-20T08:54:48;5.90;;;1.90;;
24157;SDS011;12316;50.904;4.200;2023-08-20T08:57:14;7.82;;;1.55;;
24157;SDS011;12316;50.904;4.200;2023-08-20T08:59:41;4.78;;;1.38;;
24157;SDS011;12316;50.904;4.200;2023-08-20T09:02:07;3.80;;;1.35;;
24157;SDS011;12316;50.904;4.200;2023-08-20T09:04:34;4.40;;;1.20;;
24157;SDS011;12316;50.904;4.200;2023-08-20T09:07:04;7.88;;;1.50;;
24157;SDS011;12316;50.904;4.200;2023-08-20T09:09:29;5.13;;;1.00;;
24157;SDS011;12316;50.904;4.200;2023-08-20T09:11:57;3.95;;;1.10;;
24157;SDS011;12316;50.904;4.200;2023-08-20T09:17:00;3.15;;;1.05;;
24157;SDS011;12316;50.904;4.200;2023-08-20T09:19:30;2.53;;;0.73;;
24157;SDS011;12316;50.904;4.200;2023-08-20T09:22:00;5.35;;;1.30;;
24157;SDS011;12316;50.904;4.200;2023-08-20T09:24:26;5.05;;;1.00;;
24157;SDS011;12316;50.904;4.200;2023-08-20T09:26:58;3.80;;;0.80;;
24157;SDS011;12316;50.904;4.200;2023-08-20T09:29:24;4.82;;;1.30;;
24157;SDS011;12316;50.904;4.200;2023-08-20T09:31:50;3.97;;;1.15;;
24157;SDS011;12316;50.904;4.200;2023-08-20T09:34:31;5.30;;;1.10;;
24157;SDS011;12316;50.904;4.200;2023-08-20T09:37:02;3.15;;;0.85;;
24157;SDS011;12316;50.904;4.200;2023-08-20T09:39:28;4.63;;;1.13;;
24157;SDS011;12316;50.904;4.200;2023-08-20T09:41:54;3.58;;;1.00;;
24157;SDS011;12316;50.904;4.200;2023-08-20T09:44:22;3.90;;;1.20;;
24157;SDS011;12316;50.904;4.200;2023-08-20T09:46:49;4.47;;;1.10;;
24157;SDS011;12316;50.904;4.200;2023-08-20T09:49:15;5.82;;;1.25;;
24157;SDS011;12316;50.904;4.200;2023-08-20T09:51:44;4.20;;;1.10;;
24157;SDS011;12316;50.904;4.200;2023-08-20T09:57:02;3.22;;;0.95;;
24157;SDS011;12316;50.904;4.200;2023-08-20T09:59:32;5.65;;;1.55;;
24157;SDS011;12316;50.904;4.200;2023-08-20T10:02:00;3.88;;;0.80;;
24157;SDS011;12316;50.904;4.200;2023-08-20T10:04:26;5.80;;;1.25;;
24157;SDS011;12316;50.904;4.200;2023-08-20T10:06:53;6.25;;;1.10;;
24157;SDS011;12316;50.904;4.200;2023-08-20T10:09:19;2.67;;;1.00;;
24157;SDS011;12316;50.904;4.200;2023-08-20T10:11:47;2.35;;;1.00;;
24157;SDS011;12316;50.904;4.200;2023-08-20T10:14:13;4.25;;;1.00;;
24157;SDS011;12316;50.904;4.200;2023-08-20T10:16:38;5.43;;;1.10;;
24157;SDS011;12316;50.904;4.200;2023-08-20T10:19:08;4.03;;;1.05;;
24157;SDS011;12316;50.904;4.200;2023-08-20T10:21:33;3.47;;;1.00;;
24157;SDS011;12316;50.904;4.200;2023-08-20T10:24:03;5.32;;;0.98;;
24157;SDS011;12316;50.904;4.200;2023-08-20T10:26:30;2.72;;;1.00;;
24157;SDS011;12316;50.904;4.200;2023-08-20T10:32:08;2.60;;;0.90;;
24157;SDS011;12316;50.904;4.200;2023-08-20T10:34:35;5.13;;;1.20;;
24157;SDS011;12316;50.904;4.200;2023-08-20T10:37:08;4.90;;;0.93;;
24157;SDS011;12316;50.904;4.200;2023-08-20T10:39:34;3.88;;;0.95;;
24157;SDS011;12316;50.904;4.200;2023-08-20T10:44:57;3.75;;;0.93;;
24157;SDS011;12316;50.904;4.200;2023-08-20T10:50:17;2.22;;;1.10;;
24157;SDS011;12316;50.904;4.200;2023-08-20T10:52:47;4.13;;;1.15;;
24157;SDS011;12316;50.904;4.200;2023-08-20T10:55:14;3.50;;;1.10;;
24157;SDS011;12316;50.904;4.200;2023-08-20T10:57:40;5.28;;;1.50;;
24157;SDS011;12316;50.904;4.200;2023-08-20T11:00:06;2.75;;;0.75;;
24157;SDS011;12316;50.904;4.200;2023-08-20T11:02:40;2.95;;;1.15;;
24157;SDS011;12316;50.904;4.200;2023-08-20T11:05:19;2.40;;;0.80;;
24157;SDS011;12316;50.904;4.200;2023-08-20T11:07:49;3.80;;;1.02;;
24157;SDS011;12316;50.904;4.200;2023-08-20T11:10:15;3.13;;;0.80;;
24157;SDS011;12316;50.904;4.200;2023-08-20T11:12:50;2.88;;;0.80;;
24157;SDS011;12316;50.904;4.200;2023-08-20T11:15:17;2.53;;;0.80;;
24157;SDS011;12316;50.904;4.200;2023-08-20T11:17:47;3.08;;;1.08;;
24157;SDS011;12316;50.904;4.200;2023-08-20T11:20:16;3.78;;;1.48;;
24157;SDS011;12316;50.904;4.200;2023-08-20T11:22:42;4.35;;;1.20;;
24157;SDS011;12316;50.904;4.200;2023-08-20T11:25:12;4.22;;;0.90;;
24157;SDS011;12316;50.904;4.200;2023-08-20T11:27:44;4.10;;;1.20;;
24157;SDS011;12316;50.904;4.200;2023-08-20T11:30:10;2.30;;;0.80;;
24157;SDS011;12316;50.904;4.200;2023-08-20T11:32:39;2.78;;;1.05;;
24157;SDS011;12316;50.904;4.200;2023-08-20T11:35:07;2.83;;;0.90;;
24157;SDS011;12316;50.904;4.200;2023-08-20T11:37:33;3.47;;;1.23;;
24157;SDS011;12316;50.904;4.200;2023-08-20T11:39:59;1.90;;;1.00;;
24157;SDS011;12316;50.904;4.200;2023-08-20T11:42:25;4.43;;;1.05;;
24157;SDS011;12316;50.904;4.200;2023-08-20T11:44:51;2.70;;;0.90;;
24157;SDS011;12316;50.904;4.200;2023-08-20T11:47:21;3.83;;;1.13;;
24157;SDS011;12316;50.904;4.200;2023-08-20T11:49:47;4.25;;;1.50;;
24157;SDS011;12316;50.904;4.200;2023-08-20T11:52:12;3.53;;;0.93;;
24157;SDS011;12316;50.904;4.200;2023-08-20T11:54:39;5.05;;;1.25;;
24157;SDS011;12316;50.904;4.200;2023-08-20T11:57:06;3.25;;;1.10;;
24157;SDS011;12316;50.904;4.200;2023-08-20T11:59:32;3.58;;;1.20;;
24157;SDS011;12316;50.904;4.200;2023-08-20T12:02:00;3.72;;;1.20;;
24157;SDS011;12316;50.904;4.200;2023-08-20T12:04:28;2.53;;;0.90;;
24157;SDS011;12316;50.904;4.200;2023-08-20T12:07:01;4.15;;;1.60;;
24157;SDS011;12316;50.904;4.200;2023-08-20T12:09:32;3.90;;;1.52;;
24157;SDS011;12316;50.904;4.200;2023-08-20T12:11:58;3.10;;;1.50;;
24157;SDS011;12316;50.904;4.200;2023-08-20T12:14:24;4.30;;;1.30;;
24157;SDS011;12316;50.904;4.200;2023-08-20T12:16:53;4.90;;;1.30;;
24157;SDS011;12316;50.904;4.200;2023-08-20T12:19:19;2.67;;;1.10;;
24157;SDS011;12316;50.904;4.200;2023-08-20T12:21:44;4.68;;;1.10;;
24157;SDS011;12316;50.904;4.200;2023-08-20T12:24:11;4.75;;;1.10;;
24157;SDS011;12316;50.904;4.200;2023-08-20T12:26:37;3.83;;;1.00;;
24157;SDS011;12316;50.904;4.200;2023-08-20T12:29:03;3.47;;;1.08;;
24157;SDS011;12316;50.904;4.200;2023-08-20T12:31:28;4.70;;;1.10;;
24157;SDS011;12316;50.904;4.200;2023-08-20T12:33:54;3.30;;;1.15;;
24157;SDS011;12316;50.904;4.200;2023-08-20T12:36:20;2.88;;;1.20;;
24157;SDS011;12316;50.904;4.200;2023-08-20T12:38:45;3.75;;;1.20;;
24157;SDS011;12316;50.904;4.200;2023-08-20T12:41:11;2.90;;;1.48;;
24157;SDS011;12316;50.904;4.200;2023-08-20T12:43:37;4.35;;;1.30;;
24157;SDS011;12316;50.904;4.200;2023-08-20T12:46:03;4.25;;;1.27;;
24157;SDS011;12316;50.904;4.200;2023-08-20T12:48:28;4.57;;;1.20;;
24157;SDS011;12316;50.904;4.200;2023-08-20T12:50:55;3.58;;;1.27;;
24157;SDS011;12316;50.904;4.200;2023-08-20T12:53:21;5.68;;;1.20;;
24157;SDS011;12316;50.904;4.200;2023-08-20T12:55:47;3.75;;;1.02;;
24157;SDS011;12316;50.904;4.200;2023-08-20T12:58:12;3.83;;;1.17;;
24157;SDS011;12316;50.904;4.200;2023-08-20T13:00:38;3.58;;;1.20;;
24157;SDS011;12316;50.904;4.200;2023-08-20T13:03:04;4.32;;;1.25;;
24157;SDS011;12316;50.904;4.200;2023-08-20T13:05:30;3.95;;;1.10;;
24157;SDS011;12316;50.904;4.200;2023-08-20T13:07:56;4.05;;;1.20;;
24157;SDS011;12316;50.904;4.200;2023-08-20T13:10:23;5.63;;;1.67;;
24157;SDS011;12316;50.904;4.200;2023-08-20T13:12:52;5.82;;;1.42;;
24157;SDS011;12316;50.904;4.200;2023-08-20T13:15:21;3.90;;;1.08;;
24157;SDS011;12316;50.904;4.200;2023-08-20T13:17:48;4.20;;;1.38;;
24157;SDS011;12316;50.904;4.200;2023-08-20T13:20:15;5.47;;;1.40;;
24157;SDS011;12316;50.904;4.200;2023-08-20T13:22:46;4.55;;;1.17;;
24157;SDS011;12316;50.904;4.200;2023-08-20T13:25:13;4.32;;;1.30;;
24157;SDS011;12316;50.904;4.200;2023-08-20T13:27:39;4.40;;;1.23;;
24157;SDS011;12316;50.904;4.200;2023-08-20T13:30:06;5.90;;;1.27;;
24157;SDS011;12316;50.904;4.200;2023-08-20T13:32:33;3.88;;;1.27;;
24157;SDS011;12316;50.904;4.200;2023-08-20T13:34:59;4.07;;;1.48;;
24157;SDS011;12316;50.904;4.200;2023-08-20T13:37:25;3.83;;;1.00;;
24157;SDS011;12316;50.904;4.200;2023-08-20T13:39:50;4.00;;;1.20;;
24157;SDS011;12316;50.904;4.200;2023-08-20T13:42:16;4.88;;;1.38;;
24157;SDS011;12316;50.904;4.200;2023-08-20T13:44:42;4.50;;;1.10;;
24157;SDS011;12316;50.904;4.200;2023-08-20T13:47:08;10.43;;;1.48;;
24157;SDS011;12316;50.904;4.200;2023-08-20T13:49:34;3.47;;;1.05;;
24157;SDS011;12316;50.904;4.200;2023-08-20T13:51:59;4.95;;;1.13;;
24157;SDS011;12316;50.904;4.200;2023-08-20T13:54:25;5.15;;;1.40;;
24157;SDS011;12316;50.904;4.200;2023-08-20T13:56:52;3.15;;;1.20;;
24157;SDS011;12316;50.904;4.200;2023-08-20T13:59:17;5.90;;;1.52;;
24157;SDS011;12316;50.904;4.200;2023-08-20T14:01:43;4.85;;;1.48;;
24157;SDS011;12316;50.904;4.200;2023-08-20T14:04:09;2.80;;;1.17;;
24157;SDS011;12316;50.904;4.200;2023-08-20T14:06:34;3.13;;;1.00;;
24157;SDS011;12316;50.904;4.200;2023-08-20T14:09:00;5.55;;;1.40;;
24157;SDS011;12316;50.904;4.200;2023-08-20T14:11:26;7.43;;;1.30;;
24157;SDS011;12316;50.904;4.200;2023-08-20T14:13:51;3.92;;;1.15;;
24157;SDS011;12316;50.904;4.200;2023-08-20T14:16:17;5.18;;;1.25;;
24157;SDS011;12316;50.904;4.200;2023-08-20T14:18:42;4.80;;;1.20;;
24157;SDS011;12316;50.904;4.200;2023-08-20T14:21:08;3.30;;;1.02;;
24157;SDS011;12316;50.904;4.200;2023-08-20T14:23:34;5.28;;;1.30;;
24157;SDS011;12316;50.904;4.200;2023-08-20T14:26:00;4.32;;;1.10;;
24157;SDS011;12316;50.904;4.200;2023-08-20T14:28:26;5.95;;;1.30;;
24157;SDS011;12316;50.904;4.200;2023-08-20T14:30:51;4.15;;;1.17;;
24157;SDS011;12316;50.904;4.200;2023-08-20T14:33:19;2.47;;;1.23;;
24157;SDS011;12316;50.904;4.200;2023-08-20T14:35:45;7.05;;;1.20;;
24157;SDS011;12316;50.904;4.200;2023-08-20T14:38:11;5.22;;;1.05;;
24157;SDS011;12316;50.904;4.200;2023-08-20T14:40:38;3.97;;;1.05;;
24157;SDS011;12316;50.904;4.200;2023-08-20T14:43:05;3.88;;;1.27;;
24157;SDS011;12316;50.904;4.200;2023-08-20T14:45:31;4.03;;;1.20;;
24157;SDS011;12316;50.904;4.200;2023-08-20T14:47:57;2.20;;;0.82;;
24157;SDS011;12316;50.904;4.200;2023-08-20T14:50:23;3.35;;;0.93;;
24157;SDS011;12316;50.904;4.200;2023-08-20T14:52:48;5.40;;;1.20;;
24157;SDS011;12316;50.904;4.200;2023-08-20T14:55:17;6.25;;;1.25;;
24157;SDS011;12316;50.904;4.200;2023-08-20T14:57:43;2.78;;;0.95;;
24157;SDS011;12316;50.904;4.200;2023-08-20T15:00:09;5.45;;;1.70;;